createdAt,value
2023-04-04T00:01:52.922Z,2.23
2023-04-04T00:04:22.559Z,2.20
2023-04-04T00:06:53.700Z,2.30
2023-04-04T00:09:22.973Z,2.80
2023-04-04T00:11:51.748Z,2.30
2023-04-04T00:14:22.744Z,2.20
2023-04-04T00:16:53.641Z,2.30
2023-04-04T00:19:23.011Z,2.27
2023-04-04T00:21:55.280Z,2.37
2023-04-04T00:24:25.205Z,2.43
2023-04-04T00:26:53.603Z,2.57
2023-04-04T00:29:39.387Z,2.30
2023-04-04T00:32:19.729Z,2.10
2023-04-04T00:34:52.871Z,2.60
2023-04-04T00:37:24.821Z,2.43
2023-04-04T00:39:57.973Z,2.33
2023-04-04T00:42:33.988Z,2.67
2023-04-04T00:45:06.213Z,2.60
2023-04-04T00:47:40.620Z,2.60
2023-04-04T00:50:10.576Z,2.50
2023-04-04T00:52:38.673Z,2.60
2023-04-04T00:55:10.765Z,2.50
2023-04-04T00:57:39.245Z,2.90
2023-04-04T01:00:16.221Z,2.57
2023-04-04T01:02:45.600Z,3.00
2023-04-04T01:05:16.120Z,2.67
2023-04-04T01:07:44.151Z,2.60
2023-04-04T01:10:12.824Z,2.80
2023-04-04T01:12:43.242Z,3.27
2023-04-04T01:15:14.193Z,3.43
2023-04-04T01:17:45.127Z,3.60
2023-04-04T01:20:18.746Z,3.27
2023-04-04T01:22:54.793Z,3.40
2023-04-04T01:25:32.176Z,3.20
2023-04-04T01:28:04.859Z,3.10
2023-04-04T01:30:37.804Z,2.93
2023-04-04T01:33:15.818Z,3.53
2023-04-04T01:35:58.042Z,3.23
2023-04-04T01:38:33.853Z,3.40
2023-04-04T01:41:09.111Z,3.00
2023-04-04T01:43:37.506Z,3.40
2023-04-04T01:46:08.048Z,3.27
2023-04-04T01:48:42.227Z,3.37
2023-04-04T01:51:12.697Z,2.87
2023-04-04T01:53:40.759Z,3.87
2023-04-04T01:56:13.232Z,3.53
2023-04-04T01:58:43.768Z,3.17
2023-04-04T02:01:14.200Z,3.20
2023-04-04T02:03:47.574Z,3.20
2023-04-04T02:06:20.557Z,3.10
2023-04-04T02:08:50.199Z,3.33
2023-04-04T02:11:26.961Z,3.10
2023-04-04T02:13:57.904Z,3.30
2023-04-04T02:16:32.751Z,3.47
2023-04-04T02:19:02.276Z,3.70
2023-04-04T02:21:31.074Z,3.70
2023-04-04T02:24:03.010Z,3.17
2023-04-04T02:26:34.580Z,3.77
2023-04-04T02:29:03.240Z,4.00
2023-04-04T02:31:32.637Z,4.10
2023-04-04T02:34:04.088Z,3.93
2023-04-04T02:36:37.058Z,3.70
2023-04-04T02:39:06.074Z,3.50
2023-04-04T02:41:37.592Z,3.40
2023-04-04T02:44:06.208Z,3.60
2023-04-04T02:46:36.424Z,3.50
2023-04-04T02:49:08.626Z,3.87
2023-04-04T02:51:40.942Z,3.80
2023-04-04T02:54:10.382Z,3.77
2023-04-04T02:56:42.672Z,4.17
2023-04-04T02:59:12.576Z,4.00
2023-04-04T03:01:45.173Z,3.97
2023-04-04T03:04:18.179Z,4.40
2023-04-04T03:06:50.290Z,4.03
2023-04-04T03:09:20.193Z,3.90
2023-04-04T03:11:52.349Z,3.83
2023-04-04T03:14:21.080Z,4.03
2023-04-04T03:16:52.933Z,4.20
2023-04-04T03:19:25.789Z,4.10
2023-04-04T03:21:58.902Z,4.30
2023-04-04T03:24:29.514Z,4.13
2023-04-04T03:27:01.186Z,3.70
2023-04-04T03:29:33.912Z,3.80
2023-04-04T03:32:05.438Z,3.90
2023-04-04T03:34:38.499Z,3.53
2023-04-04T03:37:16.174Z,4.17
2023-04-04T03:39:52.483Z,4.03
2023-04-04T03:42:22.711Z,4.23
2023-04-04T03:44:52.721Z,3.87
2023-04-04T03:47:22.917Z,4.30
2023-04-04T03:49:54.154Z,4.37
2023-04-04T03:52:27.603Z,3.93
2023-04-04T03:54:57.615Z,3.73
2023-04-04T03:57:28.506Z,3.70
2023-04-04T03:59:59.482Z,4.10
2023-04-04T04:02:34.090Z,4.20
2023-04-04T04:05:05.753Z,3.70
2023-04-04T04:07:37.336Z,4.13
2023-04-04T04:10:07.832Z,3.90
2023-04-04T04:12:43.645Z,4.67
2023-04-04T04:15:13.603Z,4.00
2023-04-04T04:17:43.445Z,4.33
2023-04-04T04:20:14.179Z,4.10
2023-04-04T04:22:53.836Z,4.30
2023-04-04T04:25:27.789Z,4.10
2023-04-04T04:27:58.945Z,4.37
2023-04-04T04:30:30.660Z,4.20
2023-04-04T04:33:06.806Z,4.40
2023-04-04T04:35:40.339Z,4.37
2023-04-04T04:38:12.709Z,4.27
2023-04-04T04:40:46.539Z,3.87
2023-04-04T04:43:26.542Z,4.50
2023-04-04T04:45:57.919Z,4.33
2023-04-04T04:48:31.503Z,4.20
2023-04-04T04:51:00.605Z,4.40
2023-04-04T04:53:42.193Z,4.40
2023-04-04T04:56:14.425Z,4.03
2023-04-04T04:58:49.737Z,4.00
2023-04-04T05:01:25.683Z,4.50
2023-04-04T05:03:54.814Z,4.10
2023-04-04T05:06:28.873Z,3.53
2023-04-04T05:08:58.109Z,3.50
2023-04-04T05:11:30.057Z,4.17
2023-04-04T05:14:05.984Z,3.47
2023-04-04T05:16:36.480Z,3.90
2023-04-04T05:19:14.110Z,4.00
2023-04-04T05:21:45.040Z,3.87
2023-04-04T05:24:17.478Z,3.77
2023-04-04T05:26:51.520Z,3.93
2023-04-04T05:29:31.874Z,3.87
2023-04-04T05:32:05.478Z,4.10
2023-04-04T05:34:43.245Z,3.53
2023-04-04T05:37:13.169Z,3.87
2023-04-04T05:39:45.520Z,3.70
2023-04-04T05:42:16.862Z,3.93
2023-04-04T05:44:48.523Z,3.70
2023-04-04T05:47:22.249Z,3.87
2023-04-04T05:50:03.743Z,4.57
2023-04-04T05:52:50.647Z,3.80
2023-04-04T05:55:24.716Z,3.37
2023-04-04T05:58:05.014Z,3.47
2023-04-04T06:00:36.459Z,3.97
2023-04-04T06:03:08.812Z,3.70
2023-04-04T06:05:52.514Z,4.10
2023-04-04T06:08:21.622Z,3.87
2023-04-04T06:10:55.613Z,4.07
2023-04-04T06:13:25.900Z,3.67
2023-04-04T06:15:57.509Z,3.80
2023-04-04T06:18:27.834Z,3.73
2023-04-04T06:20:58.015Z,3.60
2023-04-04T06:23:27.560Z,3.47
2023-04-04T06:25:57.785Z,3.30
2023-04-04T06:28:32.857Z,3.30
2023-04-04T06:31:09.102Z,3.87
2023-04-04T06:33:49.304Z,3.13
2023-04-04T06:36:18.091Z,3.20
2023-04-04T06:38:48.514Z,3.73
2023-04-04T06:41:17.875Z,3.77
2023-04-04T06:43:49.835Z,3.60
2023-04-04T06:46:27.451Z,3.77
2023-04-04T06:48:59.394Z,4.57
2023-04-04T06:51:30.329Z,4.43
2023-04-04T06:54:04.005Z,3.50
2023-04-04T06:56:38.317Z,4.70
2023-04-04T06:59:12.169Z,2.80
2023-04-04T07:01:46.678Z,3.83
2023-04-04T07:04:20.038Z,3.00
2023-04-04T07:06:51.386Z,3.20
2023-04-04T07:09:29.610Z,3.13
2023-04-04T07:12:02.028Z,2.70
2023-04-04T07:14:34.644Z,2.97
2023-04-04T07:17:24.311Z,3.37
2023-04-04T07:19:53.941Z,2.67
2023-04-04T07:22:26.295Z,3.40
2023-04-04T07:24:58.980Z,3.13
2023-04-04T07:27:28.792Z,3.00
2023-04-04T07:29:58.745Z,2.93
2023-04-04T07:32:43.600Z,2.90
2023-04-04T07:35:17.583Z,2.53
2023-04-04T07:41:57.976Z,2.53
2023-04-04T07:45:04.792Z,2.87
2023-04-04T07:47:39.980Z,2.60
2023-04-04T07:50:09.355Z,2.20
2023-04-04T07:52:38.611Z,2.50
2023-04-04T07:55:37.926Z,2.50
2023-04-04T07:58:11.279Z,2.67
2023-04-04T08:05:19.040Z,2.47
2023-04-04T08:07:50.436Z,2.33
2023-04-04T08:10:21.876Z,2.30
2023-04-04T08:12:50.493Z,2.20
2023-04-04T08:15:19.746Z,2.30
2023-04-04T08:17:51.113Z,2.90
2023-04-04T08:20:23.055Z,2.23
2023-04-04T08:22:51.971Z,2.47
2023-04-04T08:25:21.672Z,2.30
2023-04-04T08:27:52.505Z,2.90
2023-04-04T08:30:25.045Z,2.20
2023-04-04T08:32:59.783Z,2.73
2023-04-04T08:35:30.289Z,2.83
2023-04-04T08:37:59.031Z,2.30
2023-04-04T08:40:32.686Z,2.50
2023-04-04T08:43:06.561Z,2.30
2023-04-04T08:45:38.541Z,2.10
2023-04-04T08:48:24.503Z,2.00
2023-04-04T08:50:58.397Z,2.23
2023-04-04T08:53:29.821Z,4.80
2023-04-04T08:56:03.227Z,3.77
2023-04-04T08:58:39.603Z,2.30
2023-04-04T09:01:12.414Z,2.63
2023-04-04T09:03:46.296Z,2.40
2023-04-04T09:06:22.035Z,2.20
2023-04-04T09:08:56.055Z,2.10
2023-04-04T09:11:26.387Z,1.97
2023-04-04T09:14:02.494Z,4.60
2023-04-04T09:16:33.123Z,2.23
2023-04-04T09:19:03.935Z,2.60
2023-04-04T09:21:35.457Z,5.07
2023-04-04T09:24:08.908Z,2.10
2023-04-04T09:26:53.358Z,3.47
2023-04-04T09:29:29.385Z,2.50
2023-04-04T09:32:00.334Z,2.27
2023-04-04T09:34:31.974Z,6.03
2023-04-04T09:37:13.015Z,2.30
2023-04-04T09:39:54.355Z,2.00
2023-04-04T09:42:26.295Z,2.00
2023-04-04T09:44:57.625Z,1.93
2023-04-04T09:47:31.690Z,2.10
2023-04-04T09:50:09.140Z,2.90
2023-04-04T09:52:41.794Z,1.83
2023-04-04T09:55:12.629Z,4.30
2023-04-04T09:57:43.880Z,2.00
2023-04-04T10:00:19.656Z,2.00
2023-04-04T10:02:58.817Z,2.20
2023-04-04T10:05:29.178Z,2.50
2023-04-04T10:08:00.476Z,2.07
2023-04-04T10:10:33.242Z,2.10
2023-04-04T10:13:07.931Z,1.93
2023-04-04T10:15:38.741Z,1.90
2023-04-04T10:18:10.149Z,1.87
2023-04-04T10:20:39.723Z,2.40
2023-04-04T10:25:57.529Z,1.83
2023-04-04T10:28:28.790Z,1.83
2023-04-04T10:31:08.530Z,2.33
2023-04-04T10:33:47.225Z,2.30
2023-04-04T10:36:26.330Z,2.20
2023-04-04T10:39:06.256Z,1.97
2023-04-04T10:41:37.169Z,1.90
2023-04-04T10:44:17.315Z,2.20
2023-04-04T10:46:52.558Z,2.30
2023-04-04T10:49:24.251Z,1.97
2023-04-04T10:51:57.564Z,1.90
2023-04-04T10:54:31.236Z,4.43
2023-04-04T10:57:01.578Z,2.27
2023-04-04T10:59:34.350Z,2.00
2023-04-04T11:02:06.795Z,1.83
2023-04-04T11:04:35.967Z,1.50
2023-04-04T11:07:17.664Z,1.70
2023-04-04T11:10:02.807Z,2.00
2023-04-04T11:12:34.492Z,2.47
2023-04-04T11:15:15.871Z,1.67
2023-04-04T11:18:17.959Z,1.93
2023-04-04T11:20:58.245Z,2.30
2023-04-04T11:24:01.185Z,2.00
2023-04-04T11:26:40.639Z,1.73
2023-04-04T11:29:14.944Z,2.20
2023-04-04T11:31:46.239Z,2.00
2023-04-04T11:34:17.910Z,1.70
2023-04-04T11:37:05.149Z,2.10
2023-04-04T11:39:38.319Z,1.90
2023-04-04T11:42:15.288Z,1.87
2023-04-04T11:45:03.872Z,2.27
2023-04-04T11:47:40.492Z,2.20
2023-04-04T11:50:14.140Z,2.17
2023-04-04T11:52:44.247Z,3.30
2023-04-04T11:55:17.218Z,3.40
2023-04-04T11:57:49.646Z,1.93
2023-04-04T12:00:35.110Z,3.57
2023-04-04T12:03:05.169Z,2.20
2023-04-04T12:05:33.980Z,2.20
2023-04-04T12:08:06.403Z,2.80
2023-04-04T12:10:36.861Z,2.63
2023-04-04T12:13:12.311Z,2.70
2023-04-04T12:15:43.365Z,2.20
2023-04-04T12:18:25.087Z,2.10
2023-04-04T12:20:53.545Z,2.53
2023-04-04T12:23:22.167Z,2.40
2023-04-04T12:25:57.952Z,2.93
2023-04-04T12:28:29.004Z,2.20
2023-04-04T12:31:06.259Z,2.43
2023-04-04T12:33:38.279Z,2.50
2023-04-04T12:36:08.634Z,3.13
2023-04-04T12:38:57.007Z,2.47
2023-04-04T12:41:26.936Z,2.60
2023-04-04T12:44:07.994Z,2.60
2023-04-04T12:46:48.864Z,3.10
2023-04-04T12:49:26.068Z,2.23
2023-04-04T12:52:00.804Z,2.60
2023-04-04T12:54:32.738Z,2.60
2023-04-04T12:57:14.201Z,3.07
2023-04-04T12:59:49.462Z,3.27
2023-04-04T13:02:22.451Z,2.50
2023-04-04T13:05:00.728Z,2.43
2023-04-04T13:07:35.159Z,2.17
2023-04-04T13:10:12.228Z,2.20
2023-04-04T13:12:58.940Z,2.40
2023-04-04T13:15:53.350Z,2.50
2023-04-04T13:18:27.674Z,3.10
2023-04-04T13:20:57.185Z,2.40
2023-04-04T13:23:26.378Z,2.77
2023-04-04T13:26:20.030Z,2.30
2023-04-04T13:28:49.459Z,2.60
2023-04-04T13:31:20.338Z,2.73
2023-04-04T13:33:51.779Z,2.50
2023-04-04T13:36:23.627Z,2.50
2023-04-04T13:38:58.105Z,2.40
2023-04-04T13:41:28.140Z,2.80
2023-04-04T13:43:57.782Z,2.63
2023-04-04T13:46:28.774Z,2.43
2023-04-04T13:49:03.926Z,2.50
2023-04-04T13:51:33.422Z,2.20
2023-04-04T13:54:02.372Z,2.70
2023-04-04T13:56:33.664Z,2.50
2023-04-04T13:59:11.529Z,2.80
2023-04-04T14:01:42.880Z,2.97
2023-04-04T14:04:23.280Z,2.67
2023-04-04T14:06:53.858Z,2.63
2023-04-04T14:09:26.308Z,3.27
2023-04-04T14:11:56.569Z,3.40
2023-04-04T14:14:25.376Z,2.50
2023-04-04T14:17:00.121Z,2.83
2023-04-04T14:22:20.725Z,2.70
2023-04-04T14:24:55.007Z,2.43
2023-04-04T14:27:26.118Z,2.47
2023-04-04T14:29:58.622Z,2.50
2023-04-04T14:32:29.564Z,2.10
2023-04-04T14:35:01.890Z,2.33
2023-04-04T14:37:32.406Z,2.30
2023-04-04T14:40:08.824Z,2.20
2023-04-04T14:42:38.746Z,2.70
2023-04-04T14:45:12.633Z,2.50
2023-04-04T14:47:43.227Z,2.40
2023-04-04T14:50:18.058Z,2.10
2023-04-04T14:52:51.453Z,2.30
2023-04-04T14:55:24.289Z,2.27
2023-04-04T14:58:01.830Z,2.20
2023-04-04T15:00:32.598Z,2.13
2023-04-04T15:03:07.308Z,2.40
2023-04-04T15:05:40.384Z,2.27
2023-04-04T15:08:09.010Z,2.40
2023-04-04T15:10:46.962Z,2.27
2023-04-04T15:13:16.892Z,2.33
2023-04-04T15:15:45.329Z,2.00
2023-04-04T15:18:16.488Z,2.33
2023-04-04T15:20:46.142Z,2.20
2023-04-04T15:23:18.290Z,2.20
2023-04-04T15:25:49.201Z,2.33
2023-04-04T15:28:22.266Z,2.53
2023-04-04T15:30:51.506Z,2.47
2023-04-04T15:33:47.872Z,2.17
2023-04-04T15:36:19.063Z,2.00
2023-04-04T15:38:49.772Z,2.30
2023-04-04T15:41:21.143Z,2.20
2023-04-04T15:43:57.344Z,2.40
2023-04-04T15:46:30.760Z,2.43
2023-04-04T15:49:05.155Z,2.50
2023-04-04T15:51:37.920Z,2.77
2023-04-04T15:54:08.083Z,2.53
2023-04-04T15:56:44.112Z,2.80
2023-04-04T15:59:12.800Z,2.83
2023-04-04T16:01:42.622Z,2.70
2023-04-04T16:04:14.733Z,2.90
2023-04-04T16:06:49.143Z,2.70
2023-04-04T16:09:21.642Z,2.80
2023-04-04T16:11:54.136Z,2.67
2023-04-04T16:14:29.142Z,2.67
2023-04-04T16:17:02.649Z,2.80
2023-04-04T16:19:36.052Z,2.90
2023-04-04T16:22:05.649Z,2.70
2023-04-04T16:24:34.665Z,2.80
2023-04-04T16:27:02.724Z,2.50
2023-04-04T16:29:31.819Z,2.50
2023-04-04T16:32:02.592Z,2.67
2023-04-04T16:34:33.586Z,3.20
2023-04-04T16:37:01.530Z,2.60
2023-04-04T16:39:35.620Z,2.43
2023-04-04T16:42:04.221Z,2.40
2023-04-04T16:44:35.720Z,2.40
2023-04-04T16:47:04.281Z,2.90
2023-04-04T16:49:34.536Z,2.60
2023-04-04T16:52:02.473Z,2.93
2023-04-04T16:54:32.490Z,2.97
2023-04-04T16:57:00.897Z,3.00
2023-04-04T16:59:36.968Z,3.03
2023-04-04T17:02:08.091Z,2.90
2023-04-04T17:04:40.328Z,3.00
2023-04-04T17:07:11.697Z,2.90
2023-04-04T17:09:41.941Z,2.90
2023-04-04T17:12:13.227Z,3.07
2023-04-04T17:14:46.238Z,3.10
2023-04-04T17:17:14.883Z,3.00
2023-04-04T17:19:48.557Z,2.83
2023-04-04T17:22:19.337Z,3.33
2023-04-04T17:27:35.829Z,3.20
2023-04-04T17:30:05.032Z,3.00
2023-04-04T17:32:33.715Z,2.97
2023-04-04T17:35:05.042Z,3.03
2023-04-04T17:37:33.324Z,3.07
2023-04-04T17:40:03.800Z,3.13
2023-04-04T17:42:32.233Z,3.27
2023-04-04T17:45:00.913Z,3.10
2023-04-04T17:47:30.500Z,2.80
2023-04-04T17:49:58.976Z,3.40
2023-04-04T17:52:33.477Z,3.20
2023-04-04T17:55:03.480Z,3.20
2023-04-04T17:57:34.683Z,3.67
2023-04-04T18:00:03.075Z,3.30
2023-04-04T18:02:31.794Z,3.30
2023-04-04T18:05:00.036Z,3.20
2023-04-04T18:07:31.375Z,3.40
2023-04-04T18:10:01.417Z,3.43
2023-04-04T18:12:30.247Z,3.00
2023-04-04T18:14:59.494Z,3.50
2023-04-04T18:17:32.603Z,3.20
2023-04-04T18:20:04.538Z,3.70
2023-04-04T18:22:34.735Z,3.13
2023-04-04T18:25:05.581Z,3.30
2023-04-04T18:27:33.614Z,3.30
2023-04-04T18:30:04.064Z,3.27
2023-04-04T18:32:35.441Z,4.00
2023-04-04T18:35:06.430Z,3.40
2023-04-04T18:37:39.437Z,4.00
2023-04-04T18:40:12.501Z,3.67
2023-04-04T18:42:43.368Z,3.30
2023-04-04T18:45:33.668Z,3.60
2023-04-04T18:48:09.176Z,4.03
2023-04-04T18:50:39.293Z,3.57
2023-04-04T18:53:09.222Z,4.27
2023-04-04T18:55:41.320Z,4.17
2023-04-04T18:58:10.113Z,4.00
2023-04-04T19:00:39.139Z,3.50
2023-04-04T19:03:11.910Z,3.90
2023-04-04T19:05:48.200Z,3.80
2023-04-04T19:08:19.780Z,3.70
2023-04-04T19:10:51.505Z,3.80
2023-04-04T19:13:20.076Z,4.07
2023-04-04T19:15:48.450Z,3.93
2023-04-04T19:18:17.324Z,3.70
2023-04-04T19:20:46.108Z,3.80
2023-04-04T19:23:15.889Z,3.93
2023-04-04T19:25:47.176Z,4.20
2023-04-04T19:28:16.796Z,4.33
2023-04-04T19:30:48.112Z,4.00
2023-04-04T19:33:18.734Z,4.27
2023-04-04T19:35:53.690Z,4.13
2023-04-04T19:38:27.162Z,4.23
2023-04-04T19:41:01.770Z,4.10
2023-04-04T19:43:31.860Z,4.10
2023-04-04T19:46:06.167Z,4.10
2023-04-04T19:48:46.302Z,4.53
2023-04-04T19:51:49.387Z,4.83
2023-04-04T19:54:41.465Z,4.67
2023-04-04T19:57:22.936Z,5.10
2023-04-04T20:00:10.167Z,4.47
2023-04-04T20:02:58.181Z,4.33
2023-04-04T20:05:59.972Z,4.17
2023-04-04T20:08:36.597Z,3.93
2023-04-04T20:11:08.654Z,4.40
2023-04-04T20:13:40.975Z,4.23
2023-04-04T20:16:15.887Z,4.50
2023-04-04T20:18:47.402Z,5.10
2023-04-04T20:21:17.148Z,4.47
2023-04-04T20:23:48.303Z,4.53
2023-04-04T20:27:02.956Z,5.07
2023-04-04T20:29:35.143Z,4.47
2023-04-04T20:32:10.371Z,4.30
2023-04-04T20:34:43.658Z,4.63
2023-04-04T20:37:16.659Z,4.90
2023-04-04T20:39:49.782Z,4.67
2023-04-04T20:42:34.356Z,4.77
2023-04-04T20:45:46.721Z,4.60
2023-04-04T20:48:40.893Z,4.37
2023-04-04T20:51:28.604Z,4.70
2023-04-04T20:53:58.556Z,4.60
2023-04-04T20:56:52.392Z,4.70
2023-04-04T20:59:32.564Z,4.50
2023-04-04T21:02:09.513Z,4.53
2023-04-04T21:04:40.443Z,4.87
2023-04-04T21:07:10.465Z,4.33
2023-04-04T21:09:38.871Z,4.53
2023-04-04T21:12:08.743Z,4.83
2023-04-04T21:14:38.264Z,5.40
2023-04-04T21:17:13.507Z,5.33
2023-04-04T21:19:41.704Z,5.60
2023-04-04T21:22:10.023Z,5.83
2023-04-04T21:24:38.139Z,5.00
2023-04-04T21:27:31.507Z,5.53
2023-04-04T21:29:59.441Z,5.40
2023-04-04T21:32:31.810Z,5.40
2023-04-04T21:35:01.650Z,5.30
2023-04-04T21:37:31.725Z,5.17
2023-04-04T21:40:04.704Z,4.90
2023-04-04T21:42:33.072Z,5.13
2023-04-04T21:45:07.992Z,5.43
2023-04-04T21:47:38.146Z,5.27
2023-04-04T21:50:08.399Z,5.97
2023-04-04T21:52:41.538Z,5.70
2023-04-04T21:55:13.423Z,4.50
2023-04-04T21:57:42.198Z,5.17
2023-04-04T22:00:12.708Z,5.20
2023-04-04T22:02:42.592Z,5.43
2023-04-04T22:05:13.443Z,5.60
2023-04-04T22:07:41.544Z,5.10
2023-04-04T22:10:11.288Z,4.73
2023-04-04T22:12:40.086Z,4.93
2023-04-04T22:15:11.949Z,4.90
2023-04-04T22:17:40.291Z,5.57
2023-04-04T22:20:15.687Z,4.90
2023-04-04T22:22:48.608Z,5.13
2023-04-04T22:25:18.330Z,5.50
2023-04-04T22:27:50.703Z,5.47
2023-04-04T22:30:19.179Z,5.40
2023-04-04T22:32:50.072Z,5.10
2023-04-04T22:35:20.042Z,5.23
2023-04-04T22:37:48.096Z,5.40
2023-04-04T22:40:27.074Z,5.77
2023-04-04T22:42:58.650Z,5.07
2023-04-04T22:45:29.558Z,5.30
2023-04-04T22:48:02.326Z,5.40
2023-04-04T22:50:35.796Z,5.43
2023-04-04T22:53:05.332Z,5.07
2023-04-04T22:55:36.591Z,5.60
2023-04-04T22:58:05.703Z,5.40
2023-04-04T23:00:34.013Z,5.30
2023-04-04T23:03:02.738Z,5.80
2023-04-04T23:05:33.375Z,5.40
2023-04-04T23:08:05.087Z,5.53
2023-04-04T23:10:34.701Z,5.53
2023-04-04T23:13:03.182Z,4.67
2023-04-04T23:15:39.078Z,5.40
2023-04-04T23:18:12.797Z,5.10
2023-04-04T23:20:44.398Z,4.60
2023-04-04T23:23:12.404Z,4.47
2023-04-04T23:25:42.473Z,4.80
2023-04-04T23:28:13.820Z,5.17
2023-04-04T23:30:42.725Z,5.20
2023-04-04T23:33:13.544Z,4.63
2023-04-04T23:35:43.338Z,4.90
2023-04-04T23:38:18.293Z,4.93
2023-04-04T23:40:46.301Z,5.20
2023-04-04T23:43:16.111Z,4.70
2023-04-04T23:45:45.639Z,5.40
2023-04-04T23:48:17.430Z,5.40
2023-04-04T23:50:46.946Z,5.23
2023-04-04T23:53:15.514Z,4.63
2023-04-04T23:55:43.595Z,5.00
2023-04-04T23:58:11.470Z,5.13
